Terminal Aerodrome Forecast
Issued by NWS Des Moines, IA

Home | Current Version | Previous Version | Text Only | Print | Product List | Glossary On
Versions: 1 2 3 4 5 6 7 8 9 10 11 12 13 14 15 16 17 18 19 20 21 22 23 24 25 26 27 28 29 30 31 32 33 34
000
FTUS43 KDMX 222335
TAFDSM
TAF
KDSM 222335Z 2300/2324 32011KT P6SM FEW250
     FM231000 01008G15KT P6SM BKN025
     FM231500 05008KT P6SM OVC015
     FM231700 07009KT P6SM SCT015 OVC050
     FM232100 08013G24KT P6SM VCSH SCT025 OVC035=

USA.gov is the U.S. government's official web portal to all federal, state and local government web resources and services.